createdAt,value
2022-08-09T00:00:12.087Z,0.00
2022-08-09T00:01:10.685Z,0.00
2022-08-09T00:02:10.709Z,0.00
2022-08-09T00:04:00.005Z,0.00
2022-08-09T00:04:24.900Z,0.00
2022-08-09T00:06:17.559Z,0.00
2022-08-09T00:06:19.427Z,0.00
2022-08-09T00:07:11.024Z,0.00
2022-08-09T00:08:10.139Z,0.00
2022-08-09T00:09:09.571Z,0.00
2022-08-09T00:10:09.559Z,0.00
2022-08-09T00:11:24.427Z,0.00
2022-08-09T00:12:22.364Z,0.00
2022-08-09T00:13:17.247Z,0.00
2022-08-09T00:14:10.545Z,0.00
2022-08-09T00:15:13.903Z,0.00
2022-08-09T00:16:09.505Z,0.00
2022-08-09T00:17:09.485Z,0.00
2022-08-09T00:18:12.164Z,0.00
2022-08-09T00:19:10.350Z,0.00
2022-08-09T00:20:12.101Z,0.00
2022-08-09T00:21:09.464Z,0.00
2022-08-09T00:22:09.432Z,0.00
2022-08-09T00:23:58.162Z,0.00
2022-08-09T00:24:10.453Z,0.00
2022-08-09T00:25:10.234Z,0.00
2022-08-09T00:26:11.043Z,0.00
2022-08-09T00:27:09.377Z,0.00
2022-08-09T00:28:09.365Z,0.00
2022-08-09T00:29:12.513Z,0.00
2022-08-09T00:30:25.137Z,0.00
2022-08-09T00:31:56.762Z,0.00
2022-08-09T00:32:12.770Z,0.00
2022-08-09T00:33:09.315Z,0.00
2022-08-09T00:34:09.297Z,0.00
2022-08-09T00:35:09.288Z,0.00
2022-08-09T00:36:09.306Z,0.00
2022-08-09T00:37:09.267Z,0.00
2022-08-09T00:38:09.256Z,0.00
2022-08-09T00:39:16.740Z,0.00
2022-08-09T00:40:17.041Z,0.00
2022-08-09T00:41:10.236Z,0.00
2022-08-09T00:44:15.310Z,0.00
2022-08-09T00:44:16.634Z,0.00
2022-08-09T00:44:25.064Z,0.00
2022-08-09T00:45:15.624Z,0.00
2022-08-09T00:46:10.182Z,0.00
2022-08-09T00:47:09.164Z,0.00
2022-08-09T00:48:10.146Z,0.00
2022-08-09T00:49:10.139Z,0.00
2022-08-09T00:50:14.793Z,0.00
2022-08-09T00:51:11.750Z,0.00
2022-08-09T00:52:15.980Z,0.00
2022-08-09T00:53:11.754Z,0.00
2022-08-09T00:54:09.083Z,0.00
2022-08-09T00:55:09.075Z,0.00
2022-08-09T00:56:10.180Z,0.00
2022-08-09T00:57:11.035Z,0.00
2022-08-09T00:58:09.215Z,0.00
2022-08-09T00:59:10.030Z,0.00
2022-08-09T01:00:21.391Z,0.00
2022-08-09T01:01:10.181Z,0.00
2022-08-09T01:02:09.998Z,0.00
2022-08-09T01:03:08.990Z,0.00
2022-08-09T01:04:08.976Z,0.00
2022-08-09T01:05:14.132Z,0.00
2022-08-09T01:06:17.708Z,0.00
2022-08-09T01:07:13.924Z,0.00
2022-08-09T01:08:08.929Z,0.00
2022-08-09T01:09:09.512Z,0.00
2022-08-09T01:10:08.908Z,0.00
2022-08-09T01:11:08.928Z,0.00
2022-08-09T01:12:08.887Z,0.00
2022-08-09T01:13:08.878Z,0.00
2022-08-09T01:14:10.024Z,0.00
2022-08-09T01:15:10.100Z,0.00
2022-08-09T01:16:09.843Z,0.00
2022-08-09T01:17:09.125Z,0.00
2022-08-09T01:18:08.824Z,0.00
2022-08-09T01:19:17.161Z,0.00
2022-08-09T01:20:09.818Z,0.00
2022-08-09T01:21:09.927Z,0.00
2022-08-09T01:22:12.277Z,0.00
2022-08-09T01:23:12.403Z,0.00
2022-08-09T01:24:09.757Z,0.00
2022-08-09T01:25:08.762Z,0.00
2022-08-09T01:26:08.740Z,0.00
2022-08-09T01:27:08.728Z,0.00
2022-08-09T01:28:08.719Z,0.00
2022-08-09T01:29:08.708Z,0.00
2022-08-09T01:30:08.706Z,0.00
2022-08-09T01:31:09.681Z,0.00
2022-08-09T01:32:39.058Z,0.00
2022-08-09T01:33:10.122Z,0.00
2022-08-09T01:34:08.925Z,0.00
2022-08-09T01:35:18.203Z,0.00
2022-08-09T01:36:09.627Z,0.00
2022-08-09T01:37:08.628Z,0.00
2022-08-09T01:38:10.745Z,0.00
2022-08-09T01:39:09.708Z,0.00
2022-08-09T01:40:08.598Z,0.00
2022-08-09T01:41:08.581Z,0.00
2022-08-09T01:42:11.129Z,0.00
2022-08-09T01:43:08.555Z,0.00
2022-08-09T01:44:08.541Z,0.00
2022-08-09T01:45:08.544Z,0.00
2022-08-09T01:46:08.521Z,0.00
2022-08-09T01:47:11.650Z,0.00
2022-08-09T01:48:08.498Z,0.00
2022-08-09T01:49:10.285Z,0.00
2022-08-09T01:50:08.493Z,0.00
2022-08-09T01:51:08.468Z,0.00
2022-08-09T01:52:08.454Z,0.00
2022-08-09T01:53:19.995Z,0.00
2022-08-09T01:54:09.433Z,0.00
2022-08-09T01:55:08.437Z,0.00
2022-08-09T01:56:08.413Z,0.00
2022-08-09T01:57:08.405Z,0.00
2022-08-09T01:58:08.392Z,0.00
2022-08-09T01:59:08.385Z,0.00
2022-08-09T02:00:09.031Z,0.00
2022-08-09T02:01:09.389Z,0.00
2022-08-09T02:02:09.405Z,0.00
2022-08-09T02:03:11.311Z,0.00
2022-08-09T02:04:09.322Z,0.00
2022-08-09T02:05:15.102Z,0.00
2022-08-09T02:06:09.303Z,0.00
2022-08-09T02:07:08.293Z,0.00
2022-08-09T02:08:35.353Z,0.00
2022-08-09T02:09:09.275Z,0.00
2022-08-09T02:10:08.272Z,0.00
2022-08-09T02:11:16.646Z,0.00
2022-08-09T02:12:09.244Z,0.00
2022-08-09T02:13:08.229Z,0.00
2022-08-09T02:14:09.433Z,0.00
2022-08-09T02:15:08.224Z,0.00
2022-08-09T02:16:08.196Z,0.00
2022-08-09T02:17:15.434Z,0.00
2022-08-09T02:18:10.758Z,0.00
2022-08-09T02:19:08.169Z,0.00
2022-08-09T02:20:08.165Z,0.00
2022-08-09T02:21:08.148Z,0.00
2022-08-09T02:22:08.134Z,0.00
2022-08-09T02:23:08.120Z,0.00
2022-08-09T02:24:08.113Z,0.00
2022-08-09T02:25:08.154Z,0.00
2022-08-09T02:26:08.090Z,0.00
2022-08-09T02:27:09.082Z,0.00
2022-08-09T02:28:09.693Z,0.00
2022-08-09T02:29:08.057Z,0.00
2022-08-09T02:30:08.044Z,0.00
2022-08-09T02:31:08.083Z,0.00
2022-08-09T02:32:08.022Z,0.00
2022-08-09T02:33:14.282Z,0.00
2022-08-09T02:34:13.114Z,0.00
2022-08-09T02:35:17.673Z,0.00
2022-08-09T02:36:10.581Z,0.00
2022-08-09T02:37:07.970Z,0.00
2022-08-09T02:38:07.962Z,0.00
2022-08-09T02:39:14.354Z,0.00
2022-08-09T02:40:09.447Z,0.00
2022-08-09T02:41:07.928Z,0.00
2022-08-09T02:42:07.914Z,0.00
2022-08-09T02:43:07.908Z,0.00
2022-08-09T02:44:22.049Z,0.00
2022-08-09T02:45:08.901Z,0.00
2022-08-09T02:46:07.873Z,0.00
2022-08-09T02:47:07.863Z,0.00
2022-08-09T02:48:19.390Z,0.00
2022-08-09T02:49:08.841Z,0.00
2022-08-09T02:50:07.837Z,0.00
2022-08-09T02:51:07.820Z,0.00
2022-08-09T02:52:07.926Z,0.00
2022-08-09T02:53:07.800Z,0.00
2022-08-09T02:54:07.788Z,0.00
2022-08-09T02:55:20.072Z,0.00
2022-08-09T02:56:08.766Z,0.00
2022-08-09T02:57:13.924Z,0.00
2022-08-09T02:58:36.205Z,0.00
2022-08-09T02:59:08.736Z,0.00
2022-08-09T03:00:21.057Z,0.00
2022-08-09T03:01:11.220Z,0.00
2022-08-09T03:02:11.907Z,0.00
2022-08-09T03:03:07.715Z,0.00
2022-08-09T03:04:17.539Z,0.00
2022-08-09T03:05:08.679Z,0.00
2022-08-09T03:06:08.661Z,0.00
2022-08-09T03:07:14.132Z,0.00
2022-08-09T03:08:08.633Z,0.00
2022-08-09T03:09:07.628Z,0.00
2022-08-09T03:10:07.625Z,0.00
2022-08-09T03:11:07.604Z,0.00
2022-08-09T03:12:11.250Z,4.00
2022-08-09T03:13:09.961Z,4.00
2022-08-09T03:14:07.570Z,0.00
2022-08-09T03:15:07.571Z,0.00
2022-08-09T03:16:07.553Z,4.00
2022-08-09T03:17:07.538Z,4.00
2022-08-09T03:18:09.717Z,4.00
2022-08-09T03:19:14.601Z,4.00
2022-08-09T03:20:11.429Z,4.00
2022-08-09T03:21:07.504Z,4.00
2022-08-09T03:22:12.210Z,4.00
2022-08-09T03:23:24.210Z,8.00
2022-08-09T03:24:10.122Z,4.00
2022-08-09T03:25:26.159Z,8.00
2022-08-09T03:26:08.446Z,4.00
2022-08-09T03:27:07.458Z,8.00
2022-08-09T03:28:11.418Z,8.00
2022-08-09T03:29:09.600Z,8.00
2022-08-09T03:30:08.412Z,12.00
2022-08-09T03:31:10.346Z,12.00
2022-08-09T03:32:08.509Z,12.00
2022-08-09T03:33:13.145Z,12.00
2022-08-09T03:34:08.358Z,16.00
2022-08-09T03:35:15.092Z,16.00
2022-08-09T03:36:12.878Z,16.00
2022-08-09T03:37:54.713Z,20.00
2022-08-09T03:38:08.315Z,16.00
2022-08-09T03:39:08.353Z,20.00
2022-08-09T03:40:07.401Z,20.00
2022-08-09T03:41:07.286Z,24.00
2022-08-09T03:42:07.284Z,24.00
2022-08-09T03:43:07.262Z,24.00
2022-08-09T03:44:08.950Z,28.00
2022-08-09T03:45:07.249Z,32.00
2022-08-09T03:46:20.287Z,32.00
2022-08-09T03:47:08.227Z,36.00
2022-08-09T03:48:07.210Z,36.00
2022-08-09T03:49:08.767Z,36.00
2022-08-09T03:50:07.262Z,36.00
2022-08-09T03:51:07.180Z,40.00
2022-08-09T03:52:08.162Z,44.00
2022-08-09T03:53:07.150Z,40.00
2022-08-09T03:54:10.646Z,44.00
2022-08-09T03:55:07.790Z,52.00
2022-08-09T03:56:07.121Z,52.00
2022-08-09T03:57:18.283Z,56.00
2022-08-09T03:58:16.173Z,60.00
2022-08-09T03:59:08.085Z,64.00
2022-08-09T04:00:08.094Z,68.00
2022-08-09T04:01:07.152Z,72.00
2022-08-09T04:02:07.056Z,72.00
2022-08-09T04:03:07.046Z,80.00
2022-08-09T04:04:10.120Z,84.00
2022-08-09T04:05:26.934Z,84.00
2022-08-09T04:06:08.023Z,92.00
2022-08-09T04:07:07.011Z,96.00
2022-08-09T04:08:06.991Z,100.00
2022-08-09T04:09:15.130Z,108.00
2022-08-09T04:10:07.992Z,116.00
2022-08-09T04:11:06.958Z,120.00
2022-08-09T04:12:06.949Z,128.00
2022-08-09T04:13:07.949Z,136.00
2022-08-09T04:14:53.033Z,140.00
2022-08-09T04:15:11.429Z,148.00
2022-08-09T04:16:17.682Z,156.00
2022-08-09T04:17:07.894Z,164.00
2022-08-09T04:18:06.884Z,172.00
2022-08-09T04:19:10.964Z,176.00
2022-08-09T04:20:07.875Z,184.00
2022-08-09T04:21:06.852Z,192.00
2022-08-09T04:22:06.844Z,196.00
2022-08-09T04:23:10.060Z,200.00
2022-08-09T04:24:07.830Z,208.00
2022-08-09T04:25:06.823Z,216.00
2022-08-09T04:26:06.797Z,220.00
2022-08-09T04:27:06.785Z,228.00
2022-08-09T04:28:06.777Z,232.00
2022-08-09T04:29:13.462Z,240.00
2022-08-09T04:30:07.769Z,248.00
2022-08-09T04:31:08.303Z,256.00
2022-08-09T04:32:06.738Z,264.00
2022-08-09T04:33:07.782Z,272.00
2022-08-09T04:34:09.287Z,280.00
2022-08-09T04:35:08.673Z,284.00
2022-08-09T04:36:06.689Z,288.00
2022-08-09T04:37:06.680Z,296.00
2022-08-09T04:38:06.671Z,304.00
2022-08-09T04:39:06.706Z,316.00
2022-08-09T04:40:06.665Z,328.00
2022-08-09T04:41:06.634Z,344.00
2022-08-09T04:42:09.308Z,364.00
2022-08-09T04:43:06.620Z,380.00
2022-08-09T04:44:09.752Z,392.00
2022-08-09T04:45:06.605Z,408.00
2022-08-09T04:46:06.589Z,424.00
2022-08-09T04:47:07.577Z,440.00
2022-08-09T04:48:10.342Z,456.00
2022-08-09T04:49:06.547Z,472.00
2022-08-09T04:50:06.553Z,492.00
2022-08-09T04:51:06.542Z,508.00
2022-08-09T04:52:07.330Z,520.00
2022-08-09T04:53:06.509Z,528.00
2022-08-09T04:54:07.499Z,540.00
2022-08-09T04:55:11.871Z,552.00
2022-08-09T04:56:07.476Z,560.00
2022-08-09T04:57:09.269Z,564.00
2022-08-09T04:58:09.593Z,568.00
2022-08-09T04:59:15.339Z,580.00
2022-08-09T05:00:07.448Z,596.00
2022-08-09T05:01:16.062Z,616.00
2022-08-09T05:02:07.412Z,636.00
2022-08-09T05:03:12.736Z,660.00
2022-08-09T05:04:07.468Z,684.00
2022-08-09T05:05:10.104Z,708.00
2022-08-09T05:06:06.919Z,732.00
2022-08-09T05:07:06.355Z,748.00
2022-08-09T05:08:07.372Z,772.00
2022-08-09T05:09:06.332Z,796.00
2022-08-09T05:10:06.343Z,820.00
2022-08-09T05:11:06.766Z,852.00
2022-08-09T05:12:06.312Z,884.00
2022-08-09T05:13:06.290Z,916.00
2022-08-09T05:14:06.725Z,944.00
2022-08-09T05:15:11.613Z,980.00
2022-08-09T05:16:07.264Z,1028.00
2022-08-09T05:17:06.249Z,1064.00
2022-08-09T05:18:50.871Z,1104.00
2022-08-09T05:19:07.676Z,1140.00
2022-08-09T05:20:06.244Z,1184.00
2022-08-09T05:21:13.405Z,1240.00
2022-08-09T05:22:07.195Z,1296.00
2022-08-09T05:23:56.722Z,1352.00
2022-08-09T05:24:07.534Z,1412.00
2022-08-09T05:25:06.198Z,1464.00
2022-08-09T05:26:06.153Z,1508.00
2022-08-09T05:27:06.145Z,1544.00
2022-08-09T05:28:06.141Z,1560.00
2022-08-09T05:29:06.120Z,1580.00
2022-08-09T05:30:06.121Z,1608.00
2022-08-09T05:31:09.424Z,1636.00
2022-08-09T05:32:06.085Z,1660.00
2022-08-09T05:33:09.499Z,1712.00
2022-08-09T05:34:06.065Z,1756.00
2022-08-09T05:35:06.076Z,1796.00
2022-08-09T05:36:07.158Z,1836.00
2022-08-09T05:37:11.221Z,1880.00
2022-08-09T05:38:07.021Z,1872.00
2022-08-09T05:39:06.088Z,1880.00
2022-08-09T05:40:06.103Z,1900.00
2022-08-09T05:41:06.014Z,1924.00
2022-08-09T05:42:06.977Z,1944.00
2022-08-09T05:43:05.982Z,1964.00
2022-08-09T05:44:05.957Z,2008.00
2022-08-09T05:45:05.958Z,2060.00
2022-08-09T05:46:05.935Z,2116.00
2022-08-09T05:47:06.006Z,2160.00
2022-08-09T05:48:05.915Z,2212.00
2022-08-09T05:49:07.469Z,2284.00
2022-08-09T05:50:25.255Z,2376.00
2022-08-09T05:51:29.935Z,2476.00
2022-08-09T05:52:07.884Z,2672.00
2022-08-09T05:53:05.862Z,2656.00
2022-08-09T05:54:06.849Z,2940.00
2022-08-09T05:55:07.469Z,2692.00
2022-08-09T05:56:05.833Z,2680.00
2022-08-09T05:57:06.297Z,2708.00
2022-08-09T05:58:07.146Z,2736.00
2022-08-09T05:59:05.824Z,2764.00
2022-08-09T06:00:05.804Z,2796.00
2022-08-09T06:01:06.662Z,2848.00
2022-08-09T06:02:05.768Z,2892.00
2022-08-09T06:03:10.609Z,2916.00
2022-08-09T06:04:06.810Z,2956.00
2022-08-09T06:05:05.746Z,2988.00
2022-08-09T06:06:06.562Z,3052.00
2022-08-09T06:07:05.713Z,3100.00
2022-08-09T06:08:08.035Z,3116.00
2022-08-09T06:09:22.985Z,3152.00
2022-08-09T06:10:06.695Z,3152.00
2022-08-09T06:11:16.340Z,3156.00
2022-08-09T06:12:06.662Z,3196.00
2022-08-09T06:13:12.206Z,3188.00
2022-08-09T06:14:06.641Z,3200.00
2022-08-09T06:15:09.841Z,3252.00
2022-08-09T06:16:05.622Z,3332.00
2022-08-09T06:17:09.316Z,3392.00
2022-08-09T06:18:05.613Z,3456.00
2022-08-09T06:19:05.586Z,3508.00
2022-08-09T06:20:05.598Z,3584.00
2022-08-09T06:21:05.720Z,3640.00
2022-08-09T06:22:05.558Z,3660.00
2022-08-09T06:23:06.548Z,3672.00
2022-08-09T06:24:06.536Z,3700.00
2022-08-09T06:25:08.581Z,3724.00
2022-08-09T06:26:06.522Z,3712.00
2022-08-09T06:27:05.599Z,3696.00
2022-08-09T06:28:05.501Z,3680.00
2022-08-09T06:29:05.687Z,3704.00
2022-08-09T06:30:09.454Z,3716.00
2022-08-09T06:31:05.463Z,3780.00
2022-08-09T06:32:36.229Z,3868.00
2022-08-09T06:33:30.185Z,4044.00
2022-08-09T06:34:06.437Z,4168.00
2022-08-09T06:35:06.342Z,4160.00
2022-08-09T06:36:07.350Z,4236.00
2022-08-09T06:37:05.401Z,4344.00
2022-08-09T06:38:06.776Z,4316.00
2022-08-09T06:39:09.245Z,4356.00
2022-08-09T06:40:21.853Z,4408.00
2022-08-09T06:41:18.968Z,4476.00
2022-08-09T06:42:08.581Z,4580.00
2022-08-09T06:43:07.724Z,4704.00
2022-08-09T06:44:06.327Z,4824.00
2022-08-09T06:46:05.257Z,4916.00
2022-08-09T06:46:10.897Z,4992.00
2022-08-09T06:47:06.297Z,5036.00
2022-08-09T06:48:05.299Z,5096.00
2022-08-09T06:49:05.284Z,5144.00
2022-08-09T06:50:13.636Z,5200.00
2022-08-09T06:51:06.257Z,5292.00
2022-08-09T06:52:05.251Z,5420.00
2022-08-09T06:53:05.231Z,5608.00
2022-08-09T06:54:05.889Z,5800.00
2022-08-09T06:55:12.583Z,6616.00
2022-08-09T06:56:06.203Z,6416.00
2022-08-09T06:57:05.191Z,8792.00
2022-08-09T06:58:05.181Z,7212.00
2022-08-09T07:00:49.733Z,6764.00
2022-08-09T07:00:52.509Z,8168.00
2022-08-09T07:01:06.144Z,9624.00
2022-08-09T07:02:05.332Z,7748.00
2022-08-09T07:03:06.121Z,6724.00
2022-08-09T07:04:05.115Z,6820.00
2022-08-09T07:05:05.113Z,6804.00
2022-08-09T07:06:05.533Z,6872.00
2022-08-09T07:07:05.265Z,6984.00
2022-08-09T07:08:05.072Z,12752.00
2022-08-09T07:09:05.058Z,12304.00
2022-08-09T07:10:14.209Z,11716.00
2022-08-09T07:11:06.628Z,8852.00
2022-08-09T07:12:05.038Z,12244.00
2022-08-09T07:13:05.385Z,9516.00
2022-08-09T07:14:06.438Z,11788.00
2022-08-09T07:16:36.200Z,9796.00
2022-08-09T07:16:42.869Z,7472.00
2022-08-09T07:17:08.190Z,7484.00
2022-08-09T07:18:04.961Z,7668.00
2022-08-09T07:19:05.982Z,9724.00
2022-08-09T07:20:04.948Z,8732.00
2022-08-09T07:21:04.935Z,8736.00
2022-08-09T07:22:04.919Z,8180.00
2022-08-09T07:23:18.054Z,7844.00
2022-08-09T07:24:05.907Z,7936.00
2022-08-09T07:25:05.435Z,8064.00
2022-08-09T07:26:04.911Z,10164.00
2022-08-09T07:27:21.081Z,9120.00
2022-08-09T07:28:05.860Z,8156.00
2022-08-09T07:29:08.503Z,10080.00
2022-08-09T07:30:05.833Z,7712.00
2022-08-09T07:31:04.994Z,7620.00
2022-08-09T07:32:04.814Z,7540.00
2022-08-09T07:33:12.349Z,7556.00
2022-08-09T07:34:05.800Z,7648.00
2022-08-09T07:35:10.741Z,12396.00
2022-08-09T07:36:05.794Z,17312.00
2022-08-09T07:37:04.774Z,19264.00
2022-08-09T07:38:04.748Z,19840.00
2022-08-09T07:39:04.788Z,22144.00
2022-08-09T07:40:05.792Z,21856.00
2022-08-09T07:41:12.843Z,21824.00
2022-08-09T07:42:06.289Z,22144.00
2022-08-09T07:43:06.981Z,23776.00
2022-08-09T07:44:05.697Z,23680.00
2022-08-09T07:45:06.468Z,23776.00
2022-08-09T07:46:05.663Z,24256.00
2022-08-09T07:47:04.657Z,25280.00
2022-08-09T07:48:05.129Z,25536.00
2022-08-09T07:49:04.636Z,26208.00
2022-08-09T07:50:08.732Z,26816.00
2022-08-09T07:52:03.491Z,27104.00
2022-08-09T07:52:17.727Z,26560.00
2022-08-09T07:53:05.606Z,27104.00
2022-08-09T07:54:08.455Z,27200.00
2022-08-09T07:55:09.723Z,27104.00
2022-08-09T07:56:06.517Z,27392.00
2022-08-09T07:57:04.550Z,26336.00
2022-08-09T07:58:05.549Z,27072.00
2022-08-09T07:59:14.201Z,28864.00
2022-08-09T08:00:08.750Z,29632.00
2022-08-09T08:01:06.699Z,28480.00
2022-08-09T08:02:05.613Z,20992.00
2022-08-09T08:03:08.099Z,24256.00
2022-08-09T08:04:04.479Z,29568.00
2022-08-09T08:05:17.762Z,31680.00
2022-08-09T08:06:05.464Z,30976.00
2022-08-09T08:07:09.326Z,28928.00
2022-08-09T08:09:01.778Z,28064.00
2022-08-09T08:09:07.734Z,25312.00
2022-08-09T08:10:08.776Z,20864.00
2022-08-09T08:12:08.890Z,18304.00
2022-08-09T08:12:11.273Z,29344.00
2022-08-09T08:13:05.398Z,21664.00
2022-08-09T08:14:04.820Z,19616.00
2022-08-09T08:15:04.376Z,12972.00
2022-08-09T08:16:04.360Z,12268.00
2022-08-09T08:17:08.715Z,31168.00
2022-08-09T08:18:04.354Z,29952.00
2022-08-09T08:19:04.542Z,30944.00
2022-08-09T08:20:04.319Z,23392.00
2022-08-09T08:21:05.310Z,14928.00
2022-08-09T08:22:04.302Z,10980.00
2022-08-09T08:23:17.134Z,28032.00
2022-08-09T08:24:12.193Z,18944.00
2022-08-09T08:25:05.270Z,20000.00
2022-08-09T08:26:08.054Z,12376.00
2022-08-09T08:27:05.282Z,22624.00
2022-08-09T08:28:05.247Z,32288.00
2022-08-09T08:29:04.228Z,23648.00
2022-08-09T08:30:04.499Z,31072.00
2022-08-09T08:31:14.395Z,32192.00
2022-08-09T08:32:06.128Z,33760.00
2022-08-09T08:33:04.476Z,30752.00
2022-08-09T08:34:04.215Z,31200.00
2022-08-09T08:35:04.172Z,31776.00
2022-08-09T08:36:04.327Z,25184.00
2022-08-09T08:37:04.162Z,30976.00
2022-08-09T08:38:09.385Z,30144.00
2022-08-09T08:39:05.199Z,32832.00
2022-08-09T08:40:04.186Z,32608.00
2022-08-09T08:41:06.169Z,31808.00
2022-08-09T08:42:04.099Z,21792.00
2022-08-09T08:43:13.457Z,31584.00
2022-08-09T08:44:05.095Z,29472.00
2022-08-09T08:45:11.724Z,29344.00
2022-08-09T08:46:31.689Z,31168.00
2022-08-09T08:47:12.493Z,31872.00
2022-08-09T08:48:05.268Z,31840.00
2022-08-09T08:49:04.044Z,33536.00
2022-08-09T08:50:04.023Z,35072.00
2022-08-09T08:51:04.012Z,35232.00
2022-08-09T08:52:10.379Z,35392.00
2022-08-09T08:53:05.387Z,34656.00
2022-08-09T08:54:04.795Z,33888.00
2022-08-09T08:55:05.409Z,32288.00
2022-08-09T08:56:03.967Z,33792.00
2022-08-09T08:57:03.973Z,34720.00
2022-08-09T08:58:04.957Z,28768.00
2022-08-09T08:59:07.693Z,9948.00
2022-08-09T09:00:08.261Z,10916.00
2022-08-09T09:01:08.847Z,15028.00
2022-08-09T09:02:03.935Z,28352.00
2022-08-09T09:03:12.098Z,28928.00
2022-08-09T09:04:04.885Z,34368.00
2022-08-09T09:05:10.163Z,35296.00
2022-08-09T09:06:05.484Z,34112.00
2022-08-09T09:07:03.858Z,36992.00
2022-08-09T09:08:03.864Z,37760.00
2022-08-09T09:09:06.761Z,37184.00
2022-08-09T09:10:08.872Z,38720.00
2022-08-09T09:11:03.998Z,40832.00
2022-08-09T09:12:07.719Z,40928.00
2022-08-09T09:13:09.496Z,38752.00
2022-08-09T09:14:04.797Z,37760.00
2022-08-09T09:15:03.788Z,39872.00
2022-08-09T09:16:03.790Z,41472.00
2022-08-09T09:17:03.764Z,41344.00
2022-08-09T09:18:03.768Z,40576.00
2022-08-09T09:19:37.234Z,40320.00
2022-08-09T09:20:04.733Z,40960.00
2022-08-09T09:21:03.728Z,42048.00
2022-08-09T09:22:05.290Z,42304.00
2022-08-09T09:23:03.722Z,43520.00
2022-08-09T09:24:04.495Z,44512.00
2022-08-09T09:26:02.486Z,44416.00
2022-08-09T09:26:12.377Z,44320.00
2022-08-09T09:27:04.676Z,44480.00
2022-08-09T09:28:07.824Z,43040.00
2022-08-09T09:29:11.198Z,42144.00
2022-08-09T09:30:13.966Z,40992.00
2022-08-09T09:31:04.625Z,40256.00
2022-08-09T09:32:15.418Z,39808.00
2022-08-09T09:33:16.984Z,39616.00
2022-08-09T09:34:04.594Z,40096.00
2022-08-09T09:35:03.684Z,40512.00
2022-08-09T09:36:20.040Z,41664.00
2022-08-09T09:37:04.580Z,41920.00
2022-08-09T09:38:03.559Z,42432.00
2022-08-09T09:39:03.600Z,43328.00
2022-08-09T09:40:03.621Z,43744.00
2022-08-09T09:41:03.532Z,42720.00
2022-08-09T09:42:06.590Z,42336.00
2022-08-09T09:43:04.522Z,44192.00
2022-08-09T09:44:10.912Z,45408.00
2022-08-09T09:45:04.501Z,45024.00
2022-08-09T09:47:04.510Z,45984.00
2022-08-09T09:48:03.463Z,44608.00
2022-08-09T09:49:03.456Z,42624.00
2022-08-09T09:50:14.519Z,41952.00
2022-08-09T09:51:04.463Z,42528.00
2022-08-09T09:52:04.437Z,45184.00
2022-08-09T09:53:03.655Z,46144.00
2022-08-09T09:54:10.611Z,44544.00
2022-08-09T09:55:16.608Z,42976.00
2022-08-09T09:56:05.473Z,43200.00
2022-08-09T09:58:04.420Z,44544.00
2022-08-09T09:58:17.346Z,44864.00
2022-08-09T09:59:04.359Z,46528.00
2022-08-09T10:00:03.353Z,46976.00
2022-08-09T10:01:03.343Z,47104.00
2022-08-09T10:02:03.336Z,48512.00
2022-08-09T10:03:11.494Z,49856.00
2022-08-09T10:04:09.695Z,49024.00
2022-08-09T10:05:06.692Z,49184.00
2022-08-09T10:06:04.897Z,49952.00
2022-08-09T10:07:10.100Z,49056.00
2022-08-09T10:08:25.980Z,48320.00
2022-08-09T10:09:11.857Z,48160.00
2022-08-09T10:10:04.255Z,49248.00
2022-08-09T10:11:14.249Z,47968.00
2022-08-09T10:12:14.376Z,45984.00
2022-08-09T10:13:04.229Z,44544.00
2022-08-09T10:14:03.215Z,44768.00
2022-08-09T10:15:03.207Z,45632.00
2022-08-09T10:16:55.645Z,45792.00
2022-08-09T10:17:24.384Z,47904.00
2022-08-09T10:18:04.179Z,50016.00
2022-08-09T10:19:03.167Z,50272.00
2022-08-09T10:20:03.157Z,49920.00
2022-08-09T10:21:03.151Z,50016.00
2022-08-09T10:22:03.167Z,51168.00
2022-08-09T10:23:03.132Z,50560.00
2022-08-09T10:24:03.951Z,49664.00
2022-08-09T10:25:06.962Z,48576.00
2022-08-09T10:26:07.887Z,50144.00
2022-08-09T10:27:05.414Z,52160.00
2022-08-09T10:28:04.081Z,53248.00
2022-08-09T10:29:23.242Z,51648.00
2022-08-09T10:30:41.758Z,43648.00
2022-08-09T10:33:04.075Z,5948.00
2022-08-09T10:34:08.676Z,5688.00
2022-08-09T10:35:04.020Z,5512.00
2022-08-09T10:36:03.016Z,5420.00
2022-08-09T10:37:03.140Z,5340.00
2022-08-09T10:38:03.021Z,5240.00
2022-08-09T10:39:03.033Z,5180.00
2022-08-09T10:40:04.057Z,5136.00
2022-08-09T10:41:03.071Z,5144.00
2022-08-09T10:42:03.678Z,5136.00
2022-08-09T10:43:02.945Z,5180.00
2022-08-09T10:44:02.929Z,5232.00
2022-08-09T10:45:04.417Z,5272.00
2022-08-09T10:46:03.913Z,5304.00
2022-08-09T10:47:03.962Z,5212.00
2022-08-09T10:48:17.164Z,5176.00
2022-08-09T10:49:03.883Z,5276.00
2022-08-09T10:50:03.115Z,5328.00
2022-08-09T10:51:02.867Z,5360.00
2022-08-09T10:52:02.862Z,5316.00
2022-08-09T10:53:02.861Z,5204.00
2022-08-09T10:54:05.032Z,5064.00
2022-08-09T10:55:02.824Z,5024.00
2022-08-09T10:56:02.820Z,5136.00
2022-08-09T10:57:02.816Z,5188.00
2022-08-09T10:58:02.793Z,5168.00
2022-08-09T10:59:02.782Z,5208.00
2022-08-09T11:00:03.042Z,5324.00
2022-08-09T11:03:02.366Z,5344.00
2022-08-09T11:03:14.278Z,5396.00
2022-08-09T11:03:19.069Z,5408.00
2022-08-09T11:04:06.239Z,5444.00
2022-08-09T11:05:02.780Z,5460.00
2022-08-09T11:06:02.797Z,5568.00
2022-08-09T11:07:02.714Z,5680.00
2022-08-09T11:08:02.690Z,5820.00
2022-08-09T11:09:15.412Z,5868.00
2022-08-09T11:10:03.664Z,5776.00
2022-08-09T11:11:08.959Z,5864.00
2022-08-09T11:12:05.123Z,5872.00
2022-08-09T11:13:02.637Z,6032.00
2022-08-09T11:14:02.646Z,6192.00
2022-08-09T11:15:02.620Z,5924.00
2022-08-09T11:16:04.980Z,5892.00
2022-08-09T11:17:02.692Z,5808.00
2022-08-09T11:18:03.681Z,5792.00
2022-08-09T11:19:02.576Z,5360.00
2022-08-09T11:20:10.263Z,4960.00
2022-08-09T11:21:03.550Z,4760.00
2022-08-09T11:22:10.377Z,4968.00
2022-08-09T11:23:07.111Z,5160.00
2022-08-09T11:24:04.270Z,5024.00
2022-08-09T11:25:02.512Z,5080.00
2022-08-09T11:26:02.571Z,5192.00
2022-08-09T11:27:06.645Z,5008.00
2022-08-09T11:28:27.941Z,4676.00
2022-08-09T11:29:03.528Z,4632.00
2022-08-09T11:30:05.703Z,4784.00
2022-08-09T11:31:03.448Z,4868.00
2022-08-09T11:32:02.468Z,4808.00
2022-08-09T11:33:02.427Z,4892.00
2022-08-09T11:34:02.418Z,5176.00
2022-08-09T11:35:02.425Z,5804.00
2022-08-09T11:36:02.396Z,6096.00
2022-08-09T11:37:02.460Z,6484.00
2022-08-09T11:38:02.417Z,6468.00
2022-08-09T11:39:02.377Z,6088.00
2022-08-09T11:40:02.798Z,5780.00
2022-08-09T11:41:02.343Z,5468.00
2022-08-09T11:42:02.348Z,5104.00
2022-08-09T11:43:02.323Z,5216.00
2022-08-09T11:44:02.318Z,5368.00
2022-08-09T11:45:02.303Z,5032.00
2022-08-09T11:46:02.301Z,4876.00
2022-08-09T11:47:02.283Z,4764.00
2022-08-09T11:48:08.126Z,5240.00
2022-08-09T11:49:04.907Z,5276.00
2022-08-09T11:50:53.641Z,5088.00
2022-08-09T11:52:38.657Z,5000.00
2022-08-09T11:53:04.025Z,4968.00
2022-08-09T11:53:44.032Z,4924.00
2022-08-09T11:54:07.065Z,4904.00
2022-08-09T11:55:03.194Z,4856.00
2022-08-09T11:56:03.151Z,4880.00
2022-08-09T11:57:02.206Z,4956.00
2022-08-09T11:58:06.163Z,4952.00
2022-08-09T11:59:03.176Z,4848.00
2022-08-09T12:00:02.144Z,4652.00
2022-08-09T12:01:02.159Z,4580.00
2022-08-09T12:02:17.680Z,4528.00
2022-08-09T12:03:31.972Z,4524.00
2022-08-09T12:04:03.189Z,4512.00
2022-08-09T12:05:02.179Z,4540.00
2022-08-09T12:06:02.101Z,4552.00
2022-08-09T12:07:02.070Z,4588.00
2022-08-09T12:08:02.059Z,4656.00
2022-08-09T12:09:02.052Z,4712.00
2022-08-09T12:10:02.274Z,4808.00
2022-08-09T12:11:02.042Z,5240.00
2022-08-09T12:12:03.753Z,5300.00
2022-08-09T12:13:03.760Z,4772.00
2022-08-09T12:14:10.298Z,5208.00
2022-08-09T12:15:08.008Z,5352.00
2022-08-09T12:16:03.047Z,5320.00
2022-08-09T12:17:01.970Z,5184.00
2022-08-09T12:18:02.953Z,5160.00
2022-08-09T12:19:01.941Z,5084.00
2022-08-09T12:20:01.933Z,4996.00
2022-08-09T12:21:02.669Z,4968.00
2022-08-09T12:22:01.914Z,5044.00
2022-08-09T12:23:01.901Z,5184.00
2022-08-09T12:24:08.922Z,5220.00
2022-08-09T12:25:02.878Z,5028.00
2022-08-09T12:26:01.884Z,5128.00